Time;durP1;ratioP1;P1;durP2;ratioP2;P2;SDS_P1;SDS_P2;PMS_P1;PMS_P2;Temp;Humidity;BMP_temperature;BMP_pressure;BME280_temperature;BME280_humidity;BME280_pressure;Samples;Min_cycle;Max_cycle;Signal;HPM_P1;HPM_P2
2023/12/16 00:02:20;;;;;;;28.70;18.00;;;;;;;1.46;100.00;100769.19;109615;1251;65037;-73
2023/12/16 00:04:46;;;;;;;30.00;19.10;;;;;;;1.49;100.00;100769.55;109560;1251;59740;-72
2023/12/16 00:07:13;;;;;;;29.60;19.90;;;;;;;1.53;100.00;100769.73;109577;1252;59939;-72
2023/12/16 00:09:39;;;;;;;29.20;18.50;;;;;;;1.56;100.00;100769.54;109610;1250;67940;-73
2023/12/16 00:12:06;;;;;;;29.50;18.30;;;;;;;1.59;100.00;100772.16;109563;1250;60154;-73
2023/12/16 00:14:39;;;;;;;25.90;17.50;;;;;;;1.61;100.00;100771.98;109573;1251;63980;-73
2023/12/16 00:17:05;;;;;;;25.50;17.50;;;;;;;1.63;100.00;100772.33;109560;1251;59777;-72
2023/12/16 00:19:32;;;;;;;26.10;18.40;;;;;;;1.65;100.00;100774.77;109600;1251;59794;-73
2023/12/16 00:21:58;;;;;;;27.70;18.40;;;;;;;1.66;100.00;100773.72;109301;1251;67985;-73
2023/12/16 00:24:25;;;;;;;30.20;17.80;;;;;;;1.68;100.00;100769.33;109603;1250;60097;-74
2023/12/16 00:26:53;;;;;;;25.60;17.30;;;;;;;1.69;100.00;100768.81;109570;1251;65054;-73
2023/12/16 00:29:20;;;;;;;27.50;18.50;;;;;;;1.70;100.00;100770.56;109560;1251;59731;-74
2023/12/16 00:31:47;;;;;;;24.90;15.70;;;;;;;1.71;100.00;100765.48;109487;1251;59743;-74
2023/12/16 00:34:14;;;;;;;24.30;17.10;;;;;;;1.72;100.00;100763.02;109566;1251;68238;-74
2023/12/16 00:36:42;;;;;;;26.00;17.20;;;;;;;1.73;100.00;100780.88;109563;1251;60174;-74
2023/12/16 00:39:09;;;;;;;24.70;18.00;;;;;;;1.74;100.00;100784.22;109545;1250;65035;-74
2023/12/16 00:41:36;;;;;;;26.60;18.00;;;;;;;1.77;100.00;100785.80;109558;1251;59843;-72
2023/12/16 00:44:02;;;;;;;25.20;17.60;;;;;;;1.78;100.00;100785.79;109591;1251;59826;-74
2023/12/16 00:46:29;;;;;;;26.40;17.70;;;;;;;1.78;100.00;100787.38;109523;1250;67806;-74
2023/12/16 00:48:55;;;;;;;27.10;17.30;;;;;;;1.78;100.00;100788.23;109369;1250;61489;-73
2023/12/16 00:51:22;;;;;;;28.90;18.40;;;;;;;1.78;100.00;100792.61;109543;1251;64185;-74
2023/12/16 00:53:49;;;;;;;28.10;19.00;;;;;;;1.79;100.00;100804.02;109523;1251;59783;-73
2023/12/16 00:56:15;;;;;;;27.60;17.80;;;;;;;1.80;100.00;100808.39;109571;1251;59837;-73
2023/12/16 00:58:42;;;;;;;26.00;18.70;;;;;;;1.81;100.00;100808.21;109563;1251;67780;-73
2023/12/16 01:01:08;;;;;;;28.80;19.30;;;;;;;1.82;100.00;100809.60;109393;1250;60244;-73
2023/12/16 01:03:37;;;;;;;27.80;18.10;;;;;;;1.82;100.00;100806.98;109544;1251;65040;-74
2023/12/16 01:06:04;;;;;;;30.30;18.20;;;;;;;1.82;100.00;100801.90;109599;1251;59755;-73
2023/12/16 01:08:30;;;;;;;30.60;20.30;;;;;;;1.83;100.00;100797.52;109618;1251;59680;-73
2023/12/16 01:10:58;;;;;;;31.70;19.70;;;;;;;1.83;100.00;100793.84;109532;1251;67783;-72
2023/12/16 01:13:25;;;;;;;26.10;18.00;;;;;;;1.83;100.00;100791.38;109593;1250;59830;-74
2023/12/16 01:15:52;;;;;;;28.60;18.10;;;;;;;1.84;100.00;100787.34;109604;1251;64098;-72
2023/12/16 01:18:18;;;;;;;27.90;18.70;;;;;;;1.85;100.00;100788.91;109584;1251;59792;-72
2023/12/16 01:20:45;;;;;;;25.60;16.60;;;;;;;1.84;100.00;100790.67;109624;1251;59830;-73
2023/12/16 01:23:11;;;;;;;23.80;17.70;;;;;;;1.85;100.00;100794.19;109583;1250;68150;-73
2023/12/16 01:25:38;;;;;;;26.40;17.40;;;;;;;1.86;100.00;100796.98;109646;1251;60014;-75
2023/12/16 01:28:04;;;;;;;28.00;19.50;;;;;;;1.87;100.00;100797.85;109610;1251;63955;-73
2023/12/16 01:30:31;;;;;;;27.20;19.00;;;;;;;1.87;100.00;100801.70;109553;1253;59796;-74
2023/12/16 01:32:58;;;;;;;30.10;20.40;;;;;;;1.87;100.00;100800.14;109613;1251;60092;-73
2023/12/16 01:35:24;;;;;;;27.30;18.00;;;;;;;1.87;100.00;100792.61;109556;1251;66762;-74
2023/12/16 01:37:51;;;;;;;27.70;17.90;;;;;;;1.87;100.00;100790.33;109564;1250;60133;-74
2023/12/16 01:40:18;;;;;;;27.80;18.70;;;;;;;1.87;100.00;100789.27;109533;1251;65183;-73
2023/12/16 01:42:48;;;;;;;26.30;18.90;;;;;;;1.87;100.00;100788.20;109551;1251;60068;-73
2023/12/16 01:45:16;;;;;;;27.60;19.10;;;;;;;1.87;100.00;100786.65;109568;1251;59805;-73
2023/12/16 01:47:43;;;;;;;27.20;18.50;;;;;;;1.88;100.00;100785.77;109562;1250;66382;-74
2023/12/16 01:50:10;;;;;;;25.40;17.90;;;;;;;1.90;100.00;100787.16;109576;1251;61017;-73
2023/12/16 01:52:37;;;;;;;29.90;19.60;;;;;;;1.91;100.00;100787.34;109248;1251;64300;-73
2023/12/16 01:55:04;;;;;;;25.10;17.10;;;;;;;1.91;100.00;100788.91;109530;1251;59810;-73
2023/12/16 01:57:31;;;;;;;26.70;17.80;;;;;;;1.92;100.00;100787.15;109598;1251;59939;-73
2023/12/16 01:59:58;;;;;;;26.60;17.90;;;;;;;1.94;100.00;100785.92;109578;1251;67831;-73
2023/12/16 02:02:26;;;;;;;28.60;19.60;;;;;;;1.95;100.00;100796.09;109578;1250;61088;-73
2023/12/16 02:04:53;;;;;;;28.10;17.40;;;;;;;1.96;100.00;100798.36;109549;1251;64112;-73
2023/12/16 02:07:20;;;;;;;27.40;18.60;;;;;;;1.97;100.00;100793.45;109417;1251;59824;-73
2023/12/16 02:09:48;;;;;;;26.70;18.10;;;;;;;1.98;100.00;100795.73;109579;1251;59647;-73
2023/12/16 02:12:14;;;;;;;22.00;15.90;;;;;;;1.99;100.00;100807.98;109586;1251;67964;-73
2023/12/16 02:14:41;;;;;;;25.40;17.90;;;;;;;2.00;100.00;100810.25;109569;1251;61077;-73
2023/12/16 02:17:08;;;;;;;27.90;17.30;;;;;;;2.01;100.00;100817.27;107307;1251;1003209;-73
2023/12/16 02:19:35;;;;;;;25.00;17.40;;;;;;;2.01;100.00;100820.27;109548;1251;59818;-72
2023/12/16 02:22:01;;;;;;;26.80;17.90;;;;;;;2.02;100.00;100822.55;109591;1251;59944;-72
2023/12/16 02:24:29;;;;;;;24.00;17.30;;;;;;;2.03;100.00;100825.52;109554;1251;68091;-73
2023/12/16 02:26:55;;;;;;;22.90;15.90;;;;;;;2.03;100.00;100821.84;109585;1251;61662;-73
2023/12/16 02:29:22;;;;;;;25.10;16.80;;;;;;;2.03;100.00;100828.14;109573;1251;64112;-72
2023/12/16 02:31:48;;;;;;;22.00;16.30;;;;;;;2.04;100.00;100829.20;109572;1251;59748;-73
2023/12/16 02:34:15;;;;;;;23.20;14.60;;;;;;;2.04;100.00;100825.69;109561;1251;59809;-72
2023/12/16 02:36:42;;;;;;;25.90;17.90;;;;;;;2.04;100.00;100826.56;109387;1251;67947;-72
2023/12/16 02:39:09;;;;;;;26.00;17.50;;;;;;;2.05;100.00;100829.88;109556;1250;61285;-72
2023/12/16 02:41:35;;;;;;;23.70;16.10;;;;;;;2.06;100.00;100831.64;109209;1254;64672;-72
2023/12/16 02:44:03;;;;;;;22.30;16.20;;;;;;;2.07;100.00;100837.25;109480;1252;60240;-73
2023/12/16 02:46:30;;;;;;;22.30;15.70;;;;;;;2.07;100.00;100838.82;109477;1253;59803;-72
2023/12/16 02:48:57;;;;;;;21.60;16.70;;;;;;;2.07;100.00;100837.78;109493;1252;67089;-73
2023/12/16 02:51:23;;;;;;;22.10;16.80;;;;;;;2.07;100.00;100840.77;109512;1252;61148;-72
2023/12/16 02:53:50;;;;;;;25.40;16.90;;;;;;;2.05;100.00;100839.00;109510;1253;64028;-73
2023/12/16 02:56:17;;;;;;;23.50;16.80;;;;;;;2.03;100.00;100836.03;109518;1252;60389;-73
2023/12/16 02:58:43;;;;;;;22.50;17.50;;;;;;;2.02;100.00;100836.04;109494;1252;60216;-72
2023/12/16 03:01:10;;;;;;;22.80;17.40;;;;;;;2.00;100.00;100837.61;109450;1253;67775;-73
2023/12/16 03:03:38;;;;;;;23.40;16.50;;;;;;;1.98;100.00;100838.33;109475;1252;60360;-73
2023/12/16 03:06:08;;;;;;;21.20;15.00;;;;;;;1.97;100.00;100836.23;109459;1252;64200;-73
2023/12/16 03:08:34;;;;;;;;;;;;;;;1.94;100.00;100833.24;109519;1252;59767;-73
2023/12/16 03:11:02;;;;;;;21.60;16.00;;;;;;;1.91;100.00;100832.20;109538;1252;59850;-73
2023/12/16 03:13:30;;;;;;;24.50;16.70;;;;;;;1.90;100.00;100833.27;109460;1253;66807;-72
2023/12/16 03:15:56;;;;;;;22.60;17.10;;;;;;;1.89;100.00;100837.11;109250;1253;60250;-73
2023/12/16 03:18:23;;;;;;;24.60;17.40;;;;;;;1.88;100.00;100846.75;109486;1252;63983;-73
2023/12/16 03:20:50;;;;;;;25.70;17.60;;;;;;;1.87;100.00;100849.03;109456;1252;59972;-72
2023/12/16 03:23:17;;;;;;;23.20;18.10;;;;;;;1.87;100.00;100843.27;109482;1252;59856;-72
2023/12/16 03:25:43;;;;;;;28.20;21.40;;;;;;;1.88;100.00;100840.62;109488;1252;68186;-73
2023/12/16 03:28:11;;;;;;;29.80;19.70;;;;;;;1.87;100.00;100847.10;109462;1253;61089;-72
2023/12/16 03:30:39;;;;;;;25.80;17.40;;;;;;;1.87;100.00;100854.64;109378;1253;62766;-73
2023/12/16 03:33:07;;;;;;;25.70;18.60;;;;;;;1.87;100.00;100855.70;109459;1252;59740;-73
2023/12/16 03:35:33;;;;;;;26.60;19.20;;;;;;;1.87;100.00;100855.52;109503;1253;59756;-73
2023/12/16 03:38:00;;;;;;;23.90;18.00;;;;;;;1.88;100.00;100859.20;109486;1254;66888;-73
2023/12/16 03:40:27;;;;;;;25.80;18.50;;;;;;;1.88;100.00;100865.52;109576;1252;60107;-74
2023/12/16 03:42:54;;;;;;;25.50;17.90;;;;;;;1.88;100.00;100879.01;109545;1251;64001;-73
2023/12/16 03:45:21;;;;;;;24.40;18.00;;;;;;;1.89;100.00;100887.06;109526;1251;59801;-73
2023/12/16 03:47:47;;;;;;;23.50;17.60;;;;;;;1.91;100.00;100886.19;109625;1251;59913;-74
2023/12/16 03:50:14;;;;;;;25.60;17.30;;;;;;;1.91;100.00;100881.28;109548;1251;66746;-73
2023/12/16 03:52:41;;;;;;;22.50;16.60;;;;;;;1.91;100.00;100879.52;109574;1251;59749;-74
2023/12/16 03:55:07;;;;;;;25.60;17.60;;;;;;;1.92;100.00;100877.06;109534;1251;63982;-72
2023/12/16 03:57:34;;;;;;;24.60;17.70;;;;;;;1.93;100.00;100878.12;109444;1251;134418;-73
2023/12/16 04:00:00;;;;;;;21.40;16.40;;;;;;;1.94;100.00;100878.13;109221;1251;59850;-72
2023/12/16 04:02:27;;;;;;;21.30;16.40;;;;;;;1.95;100.00;100883.04;109320;1251;67481;-74
2023/12/16 04:04:54;;;;;;;21.50;15.70;;;;;;;1.95;100.00;100879.70;109577;1251;61052;-74
2023/12/16 04:07:20;;;;;;;24.30;18.40;;;;;;;1.96;100.00;100875.84;109570;1251;65012;-73
2023/12/16 04:09:47;;;;;;;24.00;15.80;;;;;;;1.96;100.00;100869.52;109540;1251;60020;-73
2023/12/16 04:12:14;;;;;;;21.60;15.80;;;;;;;1.96;100.00;100870.58;109531;1251;59991;-74
2023/12/16 04:14:40;;;;;;;21.90;15.60;;;;;;;1.97;100.00;100871.81;109594;1251;68037;-74
2023/12/16 04:17:07;;;;;;;25.30;17.40;;;;;;;1.98;100.00;100873.02;109599;1251;60077;-72
2023/12/16 04:19:34;;;;;;;21.80;16.70;;;;;;;1.98;100.00;100874.61;109571;1251;65161;-73
2023/12/16 04:22:00;;;;;;;24.90;17.10;;;;;;;2.00;100.00;100874.77;109569;1251;60090;-74
2023/12/16 04:24:27;;;;;;;22.50;16.20;;;;;;;2.00;100.00;100869.52;109579;1251;59633;-74
2023/12/16 04:26:55;;;;;;;22.70;16.60;;;;;;;2.01;100.00;100864.61;109408;1251;67813;-73
2023/12/16 04:29:22;;;;;;;22.70;15.60;;;;;;;2.02;100.00;100861.81;109607;1250;61063;-73
2023/12/16 04:31:48;;;;;;;21.70;15.90;;;;;;;2.02;100.00;100859.17;109558;1251;65219;-74
2023/12/16 04:34:15;;;;;;;23.30;16.90;;;;;;;2.03;100.00;100857.08;109362;1251;59859;-74
2023/12/16 04:36:41;;;;;;;22.30;17.40;;;;;;;2.04;100.00;100852.15;109555;1251;60999;-74
2023/12/16 04:39:08;;;;;;;26.20;18.20;;;;;;;2.04;100.00;100848.30;109564;1251;67781;-73
2023/12/16 04:41:35;;;;;;;22.50;16.80;;;;;;;2.04;100.00;100851.45;109606;1250;59862;-74
2023/12/16 04:44:01;;;;;;;25.60;16.70;;;;;;;2.04;100.00;100851.63;109578;1251;64039;-73
2023/12/16 04:46:28;;;;;;;22.50;16.40;;;;;;;2.04;100.00;100856.36;109504;1251;59900;-73
2023/12/16 04:48:54;;;;;;;22.20;15.70;;;;;;;2.05;100.00;100859.17;109596;1251;59730;-73
2023/12/16 04:51:21;;;;;;;22.30;16.30;;;;;;;2.06;100.00;100862.86;109575;1251;67833;-74
2023/12/16 04:53:48;;;;;;;23.10;16.80;;;;;;;2.06;100.00;100866.19;109601;1251;61120;-74
2023/12/16 04:56:14;;;;;;;21.90;16.20;;;;;;;2.07;100.00;100867.93;108796;1251;1002998;-75
2023/12/16 04:58:41;;;;;;;21.00;16.40;;;;;;;2.09;100.00;100869.51;109527;1251;59804;-74
2023/12/16 05:01:07;;;;;;;21.20;16.10;;;;;;;2.10;100.00;100867.05;109538;1251;59893;-72
2023/12/16 05:03:34;;;;;;;22.70;16.40;;;;;;;2.11;100.00;100876.87;109589;1250;66894;-73
2023/12/16 05:06:01;;;;;;;22.00;15.50;;;;;;;2.12;100.00;100876.52;109428;1250;60884;-74
2023/12/16 05:08:27;;;;;;;23.10;16.90;;;;;;;2.12;100.00;100876.86;109564;1251;64102;-73
2023/12/16 05:10:54;;;;;;;21.40;15.10;;;;;;;2.13;100.00;100876.16;109507;1251;60065;-73
2023/12/16 05:13:20;;;;;;;23.60;16.70;;;;;;;2.16;100.00;100878.44;109521;1251;59871;-74
2023/12/16 05:15:47;;;;;;;19.40;15.30;;;;;;;2.18;100.00;100874.58;109625;1251;67800;-74
2023/12/16 05:18:13;;;;;;;22.50;15.70;;;;;;;2.20;100.00;100872.80;109610;1251;60014;-73
2023/12/16 05:20:40;;;;;;;23.40;16.30;;;;;;;2.22;100.00;100872.11;109531;1251;62799;-73
2023/12/16 05:23:07;;;;;;;21.60;15.80;;;;;;;2.23;100.00;100874.38;109529;1251;59701;-73
2023/12/16 05:25:33;;;;;;;20.90;15.10;;;;;;;2.23;100.00;100873.33;109571;1251;59657;-72
2023/12/16 05:28:00;;;;;;;26.20;16.20;;;;;;;2.23;100.00;100881.22;109602;1251;66862;-74
2023/12/16 05:30:27;;;;;;;23.20;15.90;;;;;;;2.23;100.00;100885.79;109573;1251;59925;-73
2023/12/16 05:32:54;;;;;;;20.70;15.20;;;;;;;2.23;100.00;100880.16;109599;1251;64233;-73
2023/12/16 05:35:21;;;;;;;23.30;16.10;;;;;;;2.24;100.00;100875.77;109562;1251;59815;-73
2023/12/16 05:37:47;;;;;;;22.00;16.10;;;;;;;2.26;100.00;100875.08;109599;1251;59841;-73
2023/12/16 05:40:14;;;;;;;22.10;16.10;;;;;;;2.28;100.00;100882.45;109550;1251;67977;-74
2023/12/16 05:42:41;;;;;;;21.30;15.00;;;;;;;2.29;100.00;100888.56;109627;1251;59969;-73
2023/12/16 05:45:08;;;;;;;22.00;15.40;;;;;;;2.30;100.00;100890.86;109541;1251;65308;-72
2023/12/16 05:47:35;;;;;;;21.10;16.20;;;;;;;2.30;100.00;100888.92;109542;1251;59789;-73
2023/12/16 05:50:03;;;;;;;22.50;15.90;;;;;;;2.31;100.00;100893.30;109336;1251;59831;-73
2023/12/16 05:52:30;;;;;;;19.70;14.20;;;;;;;2.33;100.00;100902.59;109386;1251;68030;-74
2023/12/16 05:54:57;;;;;;;25.90;17.00;;;;;;;2.36;100.00;100908.02;109584;1251;61096;-73
2023/12/16 05:57:23;;;;;;;18.70;15.00;;;;;;;2.37;100.00;100906.44;109569;1251;65026;-73
2023/12/16 05:59:50;;;;;;;18.70;14.30;;;;;;;2.38;100.00;100908.19;109514;1252;59749;-74
2023/12/16 06:02:16;;;;;;;22.20;15.40;;;;;;;2.40;100.00;100911.70;109570;1251;59785;-73
2023/12/16 06:04:43;;;;;;;21.20;14.80;;;;;;;2.41;100.00;100916.60;109569;1251;67798;-74
2023/12/16 06:07:10;;;;;;;20.20;15.50;;;;;;;2.43;100.00;100922.39;109602;1251;60253;-73
2023/12/16 06:09:36;;;;;;;23.10;14.90;;;;;;;2.44;100.00;100926.06;109560;1251;64993;-73
2023/12/16 06:12:03;;;;;;;19.70;14.60;;;;;;;2.45;100.00;100930.27;109568;1251;60028;-74
2023/12/16 06:14:30;;;;;;;24.20;15.60;;;;;;;2.46;100.00;100927.29;109638;1251;59807;-74
2023/12/16 06:16:57;;;;;;;24.90;16.30;;;;;;;2.47;100.00;100922.73;108482;1251;1002133;-75
2023/12/16 06:19:23;;;;;;;22.60;14.80;;;;;;;2.47;100.00;100918.69;109572;1251;59823;-73
2023/12/16 06:21:50;;;;;;;21.20;14.80;;;;;;;2.48;100.00;100921.31;109586;1251;59739;-75
2023/12/16 06:24:16;;;;;;;23.00;15.40;;;;;;;2.49;100.00;100927.98;109326;1251;59848;-76
2023/12/16 06:26:43;;;;;;;22.30;15.40;;;;;;;2.51;100.00;100932.02;109585;1251;60030;-72
2023/12/16 06:29:09;;;;;;;21.60;14.90;;;;;;;2.52;100.00;100930.42;109579;1251;59813;-73
2023/12/16 06:31:36;;;;;;;19.50;14.00;;;;;;;2.54;100.00;100931.13;109573;1251;59794;-72
2023/12/16 06:34:02;;;;;;;18.20;14.40;;;;;;;2.54;100.00;100932.17;109531;1251;59791;-74
2023/12/16 06:36:29;;;;;;;22.30;15.00;;;;;;;2.55;100.00;100939.90;109590;1251;59777;-73
2023/12/16 06:38:56;;;;;;;24.30;15.00;;;;;;;2.57;100.00;100941.29;109567;1251;59908;-74
2023/12/16 06:41:23;;;;;;;24.90;14.90;;;;;;;2.59;100.00;100945.32;109574;1251;67848;-74
2023/12/16 06:43:49;;;;;;;21.50;14.40;;;;;;;2.60;100.00;100941.29;109588;1255;61139;-74
2023/12/16 06:46:19;;;;;;;21.00;14.20;;;;;;;2.62;100.00;100944.27;109559;1251;65481;-74
2023/12/16 06:48:46;;;;;;;18.50;14.00;;;;;;;2.62;100.00;100948.12;109343;1251;59816;-74
2023/12/16 06:51:12;;;;;;;21.30;14.00;;;;;;;2.63;100.00;100947.95;109552;1251;59839;-74
2023/12/16 06:53:39;;;;;;;20.80;14.30;;;;;;;2.65;100.00;100950.91;109544;1251;66756;-73
2023/12/16 06:56:07;;;;;;;24.00;15.80;;;;;;;2.67;100.00;100949.86;109304;1251;60108;-74
2023/12/16 06:58:34;;;;;;;22.40;14.50;;;;;;;2.69;100.00;100951.09;109501;1251;62407;-74
2023/12/16 07:01:01;;;;;;;23.10;13.70;;;;;;;2.72;100.00;100953.17;109507;1251;59806;-74
2023/12/16 07:03:30;;;;;;;19.30;13.60;;;;;;;2.73;100.00;100953.35;109520;1251;59681;-74
2023/12/16 07:05:57;;;;;;;19.70;14.00;;;;;;;2.74;100.00;100951.77;109551;1251;67945;-73
2023/12/16 07:08:24;;;;;;;19.70;13.40;;;;;;;2.75;100.00;100954.57;109553;1251;60073;-74
2023/12/16 07:10:50;;;;;;;16.90;12.40;;;;;;;2.76;100.00;100954.56;109537;1251;64008;-73
2023/12/16 07:13:17;;;;;;;19.80;14.30;;;;;;;2.78;100.00;100950.70;108808;1251;1002166;-72
2023/12/16 07:15:44;;;;;;;18.70;14.10;;;;;;;2.80;100.00;100948.77;109364;1251;59805;-74
2023/12/16 07:18:10;;;;;;;18.20;13.40;;;;;;;2.83;100.00;100953.49;109552;1251;59948;-73
2023/12/16 07:20:37;;;;;;;18.90;13.50;;;;;;;2.86;100.00;100955.59;109591;1251;59739;-73
2023/12/16 07:23:04;;;;;;;19.70;13.30;;;;;;;2.89;100.00;100956.98;109357;1251;59794;-73
2023/12/16 07:25:31;;;;;;;17.60;12.90;;;;;;;2.92;100.00;100961.54;109530;1251;60143;-72
2023/12/16 07:27:58;;;;;;;18.60;14.30;;;;;;;2.95;100.00;100961.17;109547;1256;59813;-72
2023/12/16 07:30:24;;;;;;;19.10;13.90;;;;;;;2.97;100.00;100959.58;109510;1254;67818;-73
2023/12/16 07:32:51;;;;;;;20.20;14.20;;;;;;;3.00;100.00;100962.90;109562;1251;61026;-73
2023/12/16 07:35:18;;;;;;;22.00;14.90;;;;;;;3.02;100.00;100963.25;109234;1256;65105;-74
2023/12/16 07:37:44;;;;;;;21.70;16.40;;;;;;;3.04;100.00;100962.89;109545;1251;59943;-73
2023/12/16 07:40:11;;;;;;;22.00;15.20;;;;;;;3.07;100.00;100964.63;109583;1251;59856;-74
2023/12/16 07:42:39;;;;;;;23.90;16.00;;;;;;;3.09;100.00;100969.35;109593;1251;66789;-73
2023/12/16 07:45:06;;;;;;;22.70;15.80;;;;;;;3.11;100.00;100969.88;109524;1250;60135;-74
2023/12/16 07:47:33;;;;;;;19.20;14.20;;;;;;;3.12;100.00;100972.33;109322;1251;63933;-73
2023/12/16 07:50:00;;;;;;;20.50;13.80;;;;;;;3.14;100.00;100972.85;109517;1251;59722;-73
2023/12/16 07:52:27;;;;;;;19.90;14.30;;;;;;;3.17;100.00;100967.92;109592;1251;59807;-72
2023/12/16 07:54:53;;;;;;;18.90;13.60;;;;;;;3.20;100.00;100967.38;109568;1251;68194;-74
2023/12/16 07:57:20;;;;;;;20.60;14.30;;;;;;;3.22;100.00;100971.77;109557;1251;60175;-74
2023/12/16 07:59:46;;;;;;;21.10;15.00;;;;;;;3.22;100.00;100969.13;109533;1251;65086;-74
2023/12/16 08:02:13;;;;;;;23.60;14.80;;;;;;;3.24;100.00;100972.98;109547;1251;60070;-74
2023/12/16 08:04:40;;;;;;;19.90;15.20;;;;;;;3.26;100.00;100971.73;109556;1251;59865;-74
2023/12/16 08:07:07;;;;;;;24.70;16.80;;;;;;;3.29;100.00;100974.37;109560;1251;66769;-73
2023/12/16 08:09:34;;;;;;;22.20;16.10;;;;;;;3.31;100.00;100975.23;109566;1251;61015;-74
2023/12/16 08:12:00;;;;;;;22.80;14.00;;;;;;;3.34;100.00;100977.84;109592;1251;65314;-74
2023/12/16 08:14:31;;;;;;;23.40;16.30;;;;;;;3.37;100.00;100982.58;109522;1251;60029;-74
2023/12/16 08:16:57;;;;;;;27.50;16.70;;;;;;;3.39;100.00;100987.13;109549;1251;59680;-74
2023/12/16 08:19:24;;;;;;;26.60;17.10;;;;;;;3.41;100.00;100990.98;109333;1251;67930;-73
2023/12/16 08:21:50;;;;;;;21.40;15.00;;;;;;;3.45;100.00;100989.20;109596;1251;61089;-74
2023/12/16 08:24:17;;;;;;;23.70;16.50;;;;;;;3.48;100.00;100987.41;109617;1251;63955;-74
2023/12/16 08:26:47;;;;;;;23.40;15.30;;;;;;;3.52;100.00;100988.29;109545;1251;59774;-73
2023/12/16 08:29:14;;;;;;;23.00;15.40;;;;;;;3.56;100.00;100991.60;109580;1251;60249;-74
2023/12/16 08:31:41;;;;;;;22.00;15.30;;;;;;;3.59;100.00;100989.47;109520;1254;66696;-74
2023/12/16 08:34:07;;;;;;;26.20;16.60;;;;;;;3.63;100.00;100991.03;109591;1251;61163;-74
2023/12/16 08:36:34;;;;;;;21.10;14.10;;;;;;;3.66;100.00;100995.04;109561;1251;65088;-74
2023/12/16 08:39:01;;;;;;;25.10;16.20;;;;;;;3.69;100.00;100998.73;109592;1251;59846;-72
2023/12/16 08:41:27;;;;;;;25.50;15.80;;;;;;;3.71;100.00;100994.66;109599;1251;59974;-73
2023/12/16 08:43:54;;;;;;;29.10;17.30;;;;;;;3.72;100.00;100993.59;109559;1251;66821;-73
2023/12/16 08:46:23;;;;;;;23.80;15.60;;;;;;;3.74;100.00;100996.05;109587;1251;61093;-73
2023/12/16 08:48:50;;;;;;;25.50;16.30;;;;;;;3.77;100.00;100998.48;109368;1251;64746;-73
2023/12/16 08:51:23;;;;;;;23.40;16.50;;;;;;;3.81;100.00;100998.45;109561;1251;60140;-72
2023/12/16 08:53:51;;;;;;;21.70;13.70;;;;;;;3.86;100.00;101001.77;109618;1251;59719;-74
2023/12/16 08:56:18;;;;;;;18.40;12.90;;;;;;;3.87;100.00;100998.77;109596;1251;67857;-74
2023/12/16 08:58:45;;;;;;;18.50;12.50;;;;;;;3.89;100.00;100999.11;109631;1251;59923;-73
2023/12/16 09:01:12;;;;;;;17.40;12.80;;;;;;;3.92;100.00;100998.03;109573;1251;65118;-74
2023/12/16 09:03:43;;;;;;;21.10;13.90;;;;;;;3.94;100.00;100997.31;109612;1251;59796;-73
2023/12/16 09:06:10;;;;;;;18.50;12.80;;;;;;;3.97;100.00;100999.58;109601;1251;59970;-73
2023/12/16 09:08:36;;;;;;;19.60;12.60;;;;;;;4.00;100.00;100994.45;109574;1251;67865;-76
2023/12/16 09:11:04;;;;;;;18.00;12.20;;;;;;;4.02;100.00;100996.19;109598;1251;61157;-76
2023/12/16 09:13:30;;;;;;;15.50;11.30;;;;;;;4.06;100.00;100996.00;109573;1251;65304;-75
2023/12/16 09:15:57;;;;;;;19.10;13.30;;;;;;;4.05;100.00;100993.89;109378;1251;59740;-75
2023/12/16 09:18:24;;;;;;;15.70;11.70;;;;;;;4.03;100.00;100990.02;109649;1251;59807;-76
2023/12/16 09:20:50;;;;;;;18.80;13.40;;;;;;;4.00;100.00;100990.58;109575;1250;66759;-75
2023/12/16 09:23:17;;;;;;;17.10;12.40;;;;;;;3.97;100.00;100993.77;109587;1251;59888;-75
2023/12/16 09:25:44;;;;;;;14.40;11.20;;;;;;;3.95;100.00;100992.39;109609;1251;65177;-75
2023/12/16 09:28:10;;;;;;;14.90;11.00;;;;;;;3.94;100.00;100991.68;109555;1251;59807;-74
2023/12/16 09:30:37;;;;;;;18.60;13.10;;;;;;;3.95;100.00;100986.77;109554;1251;59710;-76
2023/12/16 09:33:05;;;;;;;18.40;11.90;;;;;;;3.97;100.00;100986.21;109582;1251;67803;-75
2023/12/16 09:35:32;;;;;;;15.60;10.80;;;;;;;3.99;100.00;100989.55;109598;1251;60072;-73
2023/12/16 09:37:58;;;;;;;15.50;11.80;;;;;;;3.99;100.00;100996.73;109600;1251;65105;-75
2023/12/16 09:40:26;;;;;;;15.20;11.90;;;;;;;4.00;100.00;100997.09;109619;1251;59783;-76
2023/12/16 09:43:03;;;;;;;13.90;10.80;;;;;;;4.00;100.00;101001.66;109611;1251;59911;-73
2023/12/16 09:45:31;;;;;;;13.70;10.70;;;;;;;4.03;100.00;101011.33;109549;1251;67768;-73
2023/12/16 09:47:57;;;;;;;16.50;11.40;;;;;;;4.05;100.00;101018.16;109624;1251;61103;-75
2023/12/16 09:50:24;;;;;;;20.20;13.20;;;;;;;4.08;100.00;101018.31;109604;1251;65202;-73
2023/12/16 09:52:51;;;;;;;19.90;12.40;;;;;;;4.10;100.00;101014.77;109301;1251;59884;-74
2023/12/16 09:55:17;;;;;;;18.50;12.80;;;;;;;4.12;100.00;101011.06;109586;1251;59877;-74
2023/12/16 09:57:44;;;;;;;17.90;13.30;;;;;;;4.13;100.00;101011.59;109596;1251;66885;-74
2023/12/16 10:00:13;;;;;;;19.50;14.30;;;;;;;4.14;100.00;101013.16;109628;1250;61437;-74
2023/12/16 10:02:40;;;;;;;20.90;15.20;;;;;;;4.17;100.00;101014.89;109589;1251;65150;-74
2023/12/16 10:05:08;;;;;;;20.00;14.90;;;;;;;4.21;100.00;101016.09;109565;1251;59777;-75
2023/12/16 10:07:35;;;;;;;21.50;15.10;;;;;;;4.28;100.00;101016.38;109586;1251;59735;-73
2023/12/16 10:10:01;;;;;;;19.50;14.80;;;;;;;4.34;100.00;101012.45;109553;1251;67926;-74
2023/12/16 10:12:33;;;;;;;20.90;15.90;;;;;;;4.41;100.00;101006.77;109619;1251;61278;-74
2023/12/16 10:15:00;;;;;;;22.10;16.20;;;;;;;4.45;100.00;101005.50;109555;1251;63921;-75
2023/12/16 10:17:28;;;;;;;21.50;15.80;;;;;;;4.45;100.00;101002.86;109331;1251;60135;-74
2023/12/16 10:19:55;;;;;;;20.20;14.90;;;;;;;4.45;100.00;101002.33;109533;1251;59893;-74
2023/12/16 10:22:22;;;;;;;30.30;19.70;;;;;;;4.47;100.00;101006.36;109546;1250;67858;-73
2023/12/16 10:24:50;;;;;;;22.70;17.20;;;;;;;4.47;100.00;101005.65;109509;1251;60548;-73
2023/12/16 10:27:18;;;;;;;38.50;26.60;;;;;;;4.48;100.00;101004.08;109543;1251;64734;-74
2023/12/16 10:29:46;;;;;;;43.20;29.90;;;;;;;4.47;100.00;101003.19;109527;1251;59741;-73
2023/12/16 10:32:12;;;;;;;47.50;32.70;;;;;;;4.49;100.00;101000.18;109564;1251;60211;-73
2023/12/16 10:34:39;;;;;;;29.10;21.00;;;;;;;4.53;100.00;100996.96;109555;1251;67588;-74
2023/12/16 10:37:07;;;;;;;26.40;18.50;;;;;;;4.53;100.00;100997.49;109587;1250;61142;-74
2023/12/16 10:39:34;;;;;;;24.20;18.20;;;;;;;4.53;100.00;100994.33;109603;1251;63984;-74
2023/12/16 10:42:02;;;;;;;24.70;17.70;;;;;;;4.57;100.00;100991.99;109551;1251;59892;-73
2023/12/16 10:44:29;;;;;;;21.70;15.70;;;;;;;4.61;100.00;100991.08;109562;1251;59827;-76
2023/12/16 10:46:55;;;;;;;20.40;16.90;;;;;;;4.65;100.00;100994.91;109600;1250;65185;-75
2023/12/16 10:49:29;;;;;;;23.40;17.30;;;;;;;4.69;100.00;100995.58;109612;1251;60885;-73
2023/12/16 10:52:05;;;;;;;22.50;15.80;;;;;;;4.68;100.00;100993.11;109549;1251;64009;-73
2023/12/16 10:54:38;;;;;;;22.60;16.90;;;;;;;4.66;100.00;100991.04;109580;1251;60073;-73
2023/12/16 10:57:24;;;;;;;23.60;16.10;;;;;;;4.67;100.00;100986.63;109604;1251;60064;-73
2023/12/16 11:00:03;;;;;;;22.00;16.00;;;;;;;4.71;100.00;100987.11;109571;1251;66710;-72
2023/12/16 11:02:31;;;;;;;20.10;14.80;;;;;;;4.79;100.00;100985.95;109610;1251;60148;-73